sensor_id;sensor_type;location;lat;lon;timestamp;temperature;humidity
20204;DHT22;10261;49.010;12.034;2022-07-12T00:00:13;17.60;99.90
20204;DHT22;10261;49.010;12.034;2022-07-12T00:01:17;17.70;99.90
20204;DHT22;10261;49.010;12.034;2022-07-12T00:02:20;17.70;99.90
20204;DHT22;10261;49.010;12.034;2022-07-12T00:03:24;17.70;99.90
20204;DHT22;10261;49.010;12.034;2022-07-12T00:04:26;17.70;99.90
20204;DHT22;10261;49.010;12.034;2022-07-12T00:05:30;17.70;99.90
20204;DHT22;10261;49.010;12.034;2022-07-12T00:06:33;17.70;99.90
20204;DHT22;10261;49.010;12.034;2022-07-12T00:07:35;17.70;99.90
20204;DHT22;10261;49.010;12.034;2022-07-12T00:08:38;17.70;99.90
20204;DHT22;10261;49.010;12.034;2022-07-12T00:09:40;17.70;99.90
20204;DHT22;10261;49.010;12.034;2022-07-12T00:10:43;17.60;99.90
20204;DHT22;10261;49.010;12.034;2022-07-12T00:11:46;17.60;99.90
20204;DHT22;10261;49.010;12.034;2022-07-12T00:12:48;17.60;99.90
20204;DHT22;10261;49.010;12.034;2022-07-12T00:13:52;17.60;99.90
20204;DHT22;10261;49.010;12.034;2022-07-12T00:14:54;17.60;99.90
20204;DHT22;10261;49.010;12.034;2022-07-12T00:15:57;17.60;99.90
20204;DHT22;10261;49.010;12.034;2022-07-12T00:17:00;17.60;99.90
20204;DHT22;10261;49.010;12.034;2022-07-12T00:18:05;17.60;99.90
20204;DHT22;10261;49.010;12.034;2022-07-12T00:19:08;17.60;99.90
20204;DHT22;10261;49.010;12.034;2022-07-12T00:20:11;17.60;99.90
20204;DHT22;10261;49.010;12.034;2022-07-12T00:21:13;17.50;99.90
20204;DHT22;10261;49.010;12.034;2022-07-12T00:22:16;17.60;99.90
20204;DHT22;10261;49.010;12.034;2022-07-12T00:23:19;17.60;99.90
20204;DHT22;10261;49.010;12.034;2022-07-12T00:24:22;17.60;99.90
20204;DHT22;10261;49.010;12.034;2022-07-12T00:25:24;17.60;99.90
20204;DHT22;10261;49.010;12.034;2022-07-12T00:26:27;17.60;99.90
20204;DHT22;10261;49.010;12.034;2022-07-12T00:27:29;17.60;99.90
20204;DHT22;10261;49.010;12.034;2022-07-12T00:28:33;17.50;99.90
20204;DHT22;10261;49.010;12.034;2022-07-12T00:29:35;17.50;99.90
20204;DHT22;10261;49.010;12.034;2022-07-12T00:30:38;17.50;99.90
20204;DHT22;10261;49.010;12.034;2022-07-12T00:31:40;17.60;99.90
20204;DHT22;10261;49.010;12.034;2022-07-12T00:32:43;17.50;99.90
20204;DHT22;10261;49.010;12.034;2022-07-12T00:33:46;17.50;99.90
20204;DHT22;10261;49.010;12.034;2022-07-12T00:34:49;17.50;99.90
20204;DHT22;10261;49.010;12.034;2022-07-12T00:35:51;17.40;99.90
20204;DHT22;10261;49.010;12.034;2022-07-12T00:36:54;17.50;99.90
20204;DHT22;10261;49.010;12.034;2022-07-12T00:37:57;17.50;99.90
20204;DHT22;10261;49.010;12.034;2022-07-12T00:39:00;17.50;99.90
20204;DHT22;10261;49.010;12.034;2022-07-12T00:40:04;17.40;99.90
20204;DHT22;10261;49.010;12.034;2022-07-12T00:41:07;17.40;99.90
20204;DHT22;10261;49.010;12.034;2022-07-12T00:42:09;17.40;99.90
20204;DHT22;10261;49.010;12.034;2022-07-12T00:43:12;17.40;99.90
20204;DHT22;10261;49.010;12.034;2022-07-12T00:44:14;17.40;99.90
20204;DHT22;10261;49.010;12.034;2022-07-12T00:45:17;17.40;99.90
20204;DHT22;10261;49.010;12.034;2022-07-12T00:46:22;17.40;99.90
20204;DHT22;10261;49.010;12.034;2022-07-12T00:47:31;17.40;99.90
20204;DHT22;10261;49.010;12.034;2022-07-12T00:48:35;17.30;99.90
20204;DHT22;10261;49.010;12.034;2022-07-12T00:49:40;17.30;99.90
20204;DHT22;10261;49.010;12.034;2022-07-12T00:50:43;17.20;99.90
20204;DHT22;10261;49.010;12.034;2022-07-12T00:51:46;17.20;99.90
20204;DHT22;10261;49.010;12.034;2022-07-12T00:52:51;17.20;99.90
20204;DHT22;10261;49.010;12.034;2022-07-12T00:53:57;17.20;99.90
20204;DHT22;10261;49.010;12.034;2022-07-12T00:55:00;17.20;99.90
20204;DHT22;10261;49.010;12.034;2022-07-12T00:56:04;17.20;99.90
20204;DHT22;10261;49.010;12.034;2022-07-12T00:57:06;17.20;99.90
20204;DHT22;10261;49.010;12.034;2022-07-12T00:58:09;17.10;99.90
20204;DHT22;10261;49.010;12.034;2022-07-12T00:59:12;17.10;99.90
20204;DHT22;10261;49.010;12.034;2022-07-12T01:00:16;17.10;99.90
20204;DHT22;10261;49.010;12.034;2022-07-12T01:01:21;17.10;99.90
20204;DHT22;10261;49.010;12.034;2022-07-12T01:02:24;17.10;99.90
20204;DHT22;10261;49.010;12.034;2022-07-12T01:03:28;17.10;99.90
20204;DHT22;10261;49.010;12.034;2022-07-12T01:04:30;17.10;99.90
20204;DHT22;10261;49.010;12.034;2022-07-12T01:05:35;17.10;99.90
20204;DHT22;10261;49.010;12.034;2022-07-12T01:06:37;17.10;99.90
20204;DHT22;10261;49.010;12.034;2022-07-12T01:07:40;17.10;99.90
20204;DHT22;10261;49.010;12.034;2022-07-12T01:08:42;17.10;99.90
20204;DHT22;10261;49.010;12.034;2022-07-12T01:09:45;17.10;99.90
20204;DHT22;10261;49.010;12.034;2022-07-12T01:10:48;17.20;99.90
20204;DHT22;10261;49.010;12.034;2022-07-12T01:11:51;17.10;99.90
20204;DHT22;10261;49.010;12.034;2022-07-12T01:12:57;17.20;99.90
20204;DHT22;10261;49.010;12.034;2022-07-12T01:14:00;17.20;99.90
20204;DHT22;10261;49.010;12.034;2022-07-12T01:15:05;17.20;99.90
20204;DHT22;10261;49.010;12.034;2022-07-12T01:16:08;17.20;99.90
20204;DHT22;10261;49.010;12.034;2022-07-12T01:17:12;17.20;99.90
20204;DHT22;10261;49.010;12.034;2022-07-12T01:18:16;17.20;99.90
20204;DHT22;10261;49.010;12.034;2022-07-12T01:19:20;17.20;99.90
20204;DHT22;10261;49.010;12.034;2022-07-12T01:20:23;17.20;99.90
20204;DHT22;10261;49.010;12.034;2022-07-12T01:21:28;17.20;99.90
20204;DHT22;10261;49.010;12.034;2022-07-12T01:22:35;17.20;99.90
20204;DHT22;10261;49.010;12.034;2022-07-12T01:23:40;17.20;99.90
20204;DHT22;10261;49.010;12.034;2022-07-12T01:24:44;17.20;99.90
20204;DHT22;10261;49.010;12.034;2022-07-12T01:25:46;17.20;99.90
20204;DHT22;10261;49.010;12.034;2022-07-12T01:26:49;17.20;99.90
20204;DHT22;10261;49.010;12.034;2022-07-12T01:27:52;17.20;99.90
20204;DHT22;10261;49.010;12.034;2022-07-12T01:28:56;17.20;99.90
20204;DHT22;10261;49.010;12.034;2022-07-12T01:30:00;17.20;99.90
20204;DHT22;10261;49.010;12.034;2022-07-12T01:31:04;17.30;99.90
20204;DHT22;10261;49.010;12.034;2022-07-12T01:32:07;17.30;99.90
20204;DHT22;10261;49.010;12.034;2022-07-12T01:33:25;17.30;99.90
20204;DHT22;10261;49.010;12.034;2022-07-12T01:34:28;17.30;99.90
20204;DHT22;10261;49.010;12.034;2022-07-12T01:35:31;17.30;99.90
20204;DHT22;10261;49.010;12.034;2022-07-12T01:36:34;17.30;99.90
20204;DHT22;10261;49.010;12.034;2022-07-12T01:37:40;17.30;99.90
20204;DHT22;10261;49.010;12.034;2022-07-12T01:38:45;17.30;99.90
20204;DHT22;10261;49.010;12.034;2022-07-12T01:39:50;17.20;99.90
20204;DHT22;10261;49.010;12.034;2022-07-12T01:40:53;17.20;99.90
20204;DHT22;10261;49.010;12.034;2022-07-12T01:41:55;17.30;99.90
20204;DHT22;10261;49.010;12.034;2022-07-12T01:42:58;17.30;99.90
20204;DHT22;10261;49.010;12.034;2022-07-12T01:44:00;17.30;99.90
20204;DHT22;10261;49.010;12.034;2022-07-12T01:45:05;17.30;99.90
20204;DHT22;10261;49.010;12.034;2022-07-12T01:46:07;17.30;99.90
20204;DHT22;10261;49.010;12.034;2022-07-12T01:47:11;17.40;99.90
20204;DHT22;10261;49.010;12.034;2022-07-12T01:48:13;17.40;99.90
20204;DHT22;10261;49.010;12.034;2022-07-12T01:49:16;17.40;99.90
20204;DHT22;10261;49.010;12.034;2022-07-12T01:50:18;17.40;99.90
20204;DHT22;10261;49.010;12.034;2022-07-12T01:51:21;17.40;99.90
20204;DHT22;10261;49.010;12.034;2022-07-12T01:52:24;17.40;99.90
20204;DHT22;10261;49.010;12.034;2022-07-12T01:53:27;17.40;99.90
20204;DHT22;10261;49.010;12.034;2022-07-12T01:54:30;17.40;99.90
20204;DHT22;10261;49.010;12.034;2022-07-12T01:55:34;17.40;99.90
20204;DHT22;10261;49.010;12.034;2022-07-12T01:56:36;17.40;99.90
20204;DHT22;10261;49.010;12.034;2022-07-12T01:57:41;17.40;99.90
20204;DHT22;10261;49.010;12.034;2022-07-12T01:58:43;17.40;99.90
20204;DHT22;10261;49.010;12.034;2022-07-12T01:59:47;17.40;99.90
20204;DHT22;10261;49.010;12.034;2022-07-12T02:00:50;17.40;99.90
20204;DHT22;10261;49.010;12.034;2022-07-12T02:01:54;17.40;99.90
20204;DHT22;10261;49.010;12.034;2022-07-12T02:02:57;17.40;99.90
20204;DHT22;10261;49.010;12.034;2022-07-12T02:04:02;17.30;99.90
20204;DHT22;10261;49.010;12.034;2022-07-12T02:05:05;17.20;99.90
20204;DHT22;10261;49.010;12.034;2022-07-12T02:06:08;17.30;99.90
20204;DHT22;10261;49.010;12.034;2022-07-12T02:07:10;17.30;99.90
20204;DHT22;10261;49.010;12.034;2022-07-12T02:08:13;17.30;99.90
20204;DHT22;10261;49.010;12.034;2022-07-12T02:09:16;17.30;99.90
20204;DHT22;10261;49.010;12.034;2022-07-12T02:10:20;17.30;99.90
20204;DHT22;10261;49.010;12.034;2022-07-12T02:11:22;17.30;99.90
20204;DHT22;10261;49.010;12.034;2022-07-12T02:12:26;17.30;99.90
20204;DHT22;10261;49.010;12.034;2022-07-12T02:13:28;17.30;99.90
20204;DHT22;10261;49.010;12.034;2022-07-12T02:14:31;17.30;99.90
20204;DHT22;10261;49.010;12.034;2022-07-12T02:15:33;17.30;99.90
20204;DHT22;10261;49.010;12.034;2022-07-12T02:16:36;17.30;99.90
20204;DHT22;10261;49.010;12.034;2022-07-12T02:17:39;17.40;99.90
20204;DHT22;10261;49.010;12.034;2022-07-12T02:18:42;17.30;99.90
20204;DHT22;10261;49.010;12.034;2022-07-12T02:19:45;17.40;99.90
20204;DHT22;10261;49.010;12.034;2022-07-12T02:20:48;17.40;99.90
20204;DHT22;10261;49.010;12.034;2022-07-12T02:21:50;17.40;99.90
20204;DHT22;10261;49.010;12.034;2022-07-12T02:22:53;17.30;99.90
20204;DHT22;10261;49.010;12.034;2022-07-12T02:23:56;17.30;99.90
20204;DHT22;10261;49.010;12.034;2022-07-12T02:24:59;17.30;99.90
20204;DHT22;10261;49.010;12.034;2022-07-12T02:26:04;17.30;99.90
20204;DHT22;10261;49.010;12.034;2022-07-12T02:27:06;17.30;99.90
20204;DHT22;10261;49.010;12.034;2022-07-12T02:28:09;17.30;99.90
20204;DHT22;10261;49.010;12.034;2022-07-12T02:29:11;17.30;99.90
20204;DHT22;10261;49.010;12.034;2022-07-12T02:30:14;17.30;99.90
20204;DHT22;10261;49.010;12.034;2022-07-12T02:31:18;17.30;99.90
20204;DHT22;10261;49.010;12.034;2022-07-12T02:32:20;17.30;99.90
20204;DHT22;10261;49.010;12.034;2022-07-12T02:33:23;17.30;99.90
20204;DHT22;10261;49.010;12.034;2022-07-12T02:34:25;17.30;99.90
20204;DHT22;10261;49.010;12.034;2022-07-12T02:35:28;17.40;99.90
20204;DHT22;10261;49.010;12.034;2022-07-12T02:36:30;17.40;99.90
20204;DHT22;10261;49.010;12.034;2022-07-12T02:37:33;17.40;99.90
20204;DHT22;10261;49.010;12.034;2022-07-12T02:38:35;17.40;99.90
20204;DHT22;10261;49.010;12.034;2022-07-12T02:39:38;17.40;99.90
20204;DHT22;10261;49.010;12.034;2022-07-12T02:40:40;17.40;99.90
20204;DHT22;10261;49.010;12.034;2022-07-12T02:41:59;17.40;99.90
20204;DHT22;10261;49.010;12.034;2022-07-12T02:43:02;17.30;99.90
20204;DHT22;10261;49.010;12.034;2022-07-12T02:44:04;17.30;99.90
20204;DHT22;10261;49.010;12.034;2022-07-12T02:45:08;17.30;99.90
20204;DHT22;10261;49.010;12.034;2022-07-12T02:46:11;17.30;99.90
20204;DHT22;10261;49.010;12.034;2022-07-12T02:47:15;17.30;99.90
20204;DHT22;10261;49.010;12.034;2022-07-12T02:48:17;17.30;99.90
20204;DHT22;10261;49.010;12.034;2022-07-12T02:49:21;17.30;99.90
20204;DHT22;10261;49.010;12.034;2022-07-12T02:50:23;17.30;99.90
20204;DHT22;10261;49.010;12.034;2022-07-12T02:51:26;17.30;99.90
20204;DHT22;10261;49.010;12.034;2022-07-12T02:52:28;17.20;99.90
20204;DHT22;10261;49.010;12.034;2022-07-12T02:53:31;17.20;99.90
20204;DHT22;10261;49.010;12.034;2022-07-12T02:54:41;17.20;99.90
20204;DHT22;10261;49.010;12.034;2022-07-12T02:55:45;17.20;99.90
20204;DHT22;10261;49.010;12.034;2022-07-12T02:56:47;17.10;99.90
20204;DHT22;10261;49.010;12.034;2022-07-12T02:57:51;17.20;99.90
20204;DHT22;10261;49.010;12.034;2022-07-12T02:58:53;17.20;99.90
20204;DHT22;10261;49.010;12.034;2022-07-12T02:59:56;17.20;99.90
20204;DHT22;10261;49.010;12.034;2022-07-12T03:00:58;17.20;99.90
20204;DHT22;10261;49.010;12.034;2022-07-12T03:02:01;17.20;99.90
20204;DHT22;10261;49.010;12.034;2022-07-12T03:03:04;17.20;99.90
20204;DHT22;10261;49.010;12.034;2022-07-12T03:04:10;17.20;99.90
20204;DHT22;10261;49.010;12.034;2022-07-12T03:05:13;17.20;99.90
20204;DHT22;10261;49.010;12.034;2022-07-12T03:06:15;17.20;99.90
20204;DHT22;10261;49.010;12.034;2022-07-12T03:07:18;17.20;99.90
20204;DHT22;10261;49.010;12.034;2022-07-12T03:08:20;17.20;99.90
20204;DHT22;10261;49.010;12.034;2022-07-12T03:09:23;17.20;99.90
20204;DHT22;10261;49.010;12.034;2022-07-12T03:10:25;17.20;99.90
20204;DHT22;10261;49.010;12.034;2022-07-12T03:11:28;17.20;99.90
20204;DHT22;10261;49.010;12.034;2022-07-12T03:12:31;17.20;99.90
20204;DHT22;10261;49.010;12.034;2022-07-12T03:13:35;17.20;99.90
20204;DHT22;10261;49.010;12.034;2022-07-12T03:14:37;17.20;99.90
20204;DHT22;10261;49.010;12.034;2022-07-12T03:15:40;17.20;99.90
20204;DHT22;10261;49.010;12.034;2022-07-12T03:16:42;17.20;99.90
20204;DHT22;10261;49.010;12.034;2022-07-12T03:17:45;17.20;99.90
20204;DHT22;10261;49.010;12.034;2022-07-12T03:18:47;17.20;99.90
20204;DHT22;10261;49.010;12.034;2022-07-12T03:19:50;17.20;99.90
20204;DHT22;10261;49.010;12.034;2022-07-12T03:20:53;17.20;99.90
20204;DHT22;10261;49.010;12.034;2022-07-12T03:21:56;17.20;99.90
20204;DHT22;10261;49.010;12.034;2022-07-12T03:22:58;17.20;99.90
20204;DHT22;10261;49.010;12.034;2022-07-12T03:24:01;17.20;99.90
20204;DHT22;10261;49.010;12.034;2022-07-12T03:25:03;17.20;99.90
20204;DHT22;10261;49.010;12.034;2022-07-12T03:26:07;17.20;99.90
20204;DHT22;10261;49.010;12.034;2022-07-12T03:27:09;17.10;99.90
20204;DHT22;10261;49.010;12.034;2022-07-12T03:28:12;17.20;99.90
20204;DHT22;10261;49.010;12.034;2022-07-12T03:29:15;17.20;99.90
20204;DHT22;10261;49.010;12.034;2022-07-12T03:30:18;17.20;99.90
20204;DHT22;10261;49.010;12.034;2022-07-12T03:31:20;17.10;99.90
20204;DHT22;10261;49.010;12.034;2022-07-12T03:32:24;17.10;99.90
20204;DHT22;10261;49.010;12.034;2022-07-12T03:33:26;17.10;99.90
20204;DHT22;10261;49.010;12.034;2022-07-12T03:34:34;17.10;99.90
20204;DHT22;10261;49.010;12.034;2022-07-12T03:35:36;17.10;99.90
20204;DHT22;10261;49.010;12.034;2022-07-12T03:36:39;17.10;99.90
20204;DHT22;10261;49.010;12.034;2022-07-12T03:37:44;17.10;99.90
20204;DHT22;10261;49.010;12.034;2022-07-12T03:38:46;17.10;99.90
20204;DHT22;10261;49.010;12.034;2022-07-12T03:39:49;17.10;99.90
20204;DHT22;10261;49.010;12.034;2022-07-12T03:40:51;17.10;99.90
20204;DHT22;10261;49.010;12.034;2022-07-12T03:41:54;17.10;99.90
20204;DHT22;10261;49.010;12.034;2022-07-12T03:42:56;17.10;99.90
20204;DHT22;10261;49.010;12.034;2022-07-12T03:44:00;17.10;99.90
20204;DHT22;10261;49.010;12.034;2022-07-12T03:45:04;17.10;99.90
20204;DHT22;10261;49.010;12.034;2022-07-12T03:46:08;17.00;99.90
20204;DHT22;10261;49.010;12.034;2022-07-12T03:47:11;17.10;99.90
20204;DHT22;10261;49.010;12.034;2022-07-12T03:48:13;17.10;99.90
20204;DHT22;10261;49.010;12.034;2022-07-12T03:49:16;17.10;99.90
20204;DHT22;10261;49.010;12.034;2022-07-12T03:50:18;17.10;99.90
20204;DHT22;10261;49.010;12.034;2022-07-12T03:51:21;17.10;99.90
20204;DHT22;10261;49.010;12.034;2022-07-12T03:52:23;17.10;99.90
20204;DHT22;10261;49.010;12.034;2022-07-12T03:53:26;17.10;99.90
20204;DHT22;10261;49.010;12.034;2022-07-12T03:54:28;17.10;99.90
20204;DHT22;10261;49.010;12.034;2022-07-12T03:55:31;17.10;99.90
20204;DHT22;10261;49.010;12.034;2022-07-12T03:56:33;17.10;99.90
20204;DHT22;10261;49.010;12.034;2022-07-12T03:57:54;17.10;99.90
20204;DHT22;10261;49.010;12.034;2022-07-12T03:58:57;17.10;99.90
20204;DHT22;10261;49.010;12.034;2022-07-12T03:59:59;17.10;99.90
20204;DHT22;10261;49.010;12.034;2022-07-12T04:01:04;17.00;99.90
20204;DHT22;10261;49.010;12.034;2022-07-12T04:02:06;17.00;99.90
20204;DHT22;10261;49.010;12.034;2022-07-12T04:03:09;17.00;99.90
20204;DHT22;10261;49.010;12.034;2022-07-12T04:04:12;17.00;99.90
20204;DHT22;10261;49.010;12.034;2022-07-12T04:05:15;17.00;99.90
20204;DHT22;10261;49.010;12.034;2022-07-12T04:06:17;17.00;99.90
20204;DHT22;10261;49.010;12.034;2022-07-12T04:07:20;16.90;99.90
20204;DHT22;10261;49.010;12.034;2022-07-12T04:08:23;17.00;99.90
20204;DHT22;10261;49.010;12.034;2022-07-12T04:09:26;17.00;99.90
20204;DHT22;10261;49.010;12.034;2022-07-12T04:10:28;16.90;99.90
20204;DHT22;10261;49.010;12.034;2022-07-12T04:11:31;16.90;99.90
20204;DHT22;10261;49.010;12.034;2022-07-12T04:12:34;16.80;99.90
20204;DHT22;10261;49.010;12.034;2022-07-12T04:13:37;16.90;99.90
20204;DHT22;10261;49.010;12.034;2022-07-12T04:14:39;16.90;99.90
20204;DHT22;10261;49.010;12.034;2022-07-12T04:15:42;16.90;99.90
20204;DHT22;10261;49.010;12.034;2022-07-12T04:16:47;16.90;99.90
20204;DHT22;10261;49.010;12.034;2022-07-12T04:17:49;17.00;99.90
20204;DHT22;10261;49.010;12.034;2022-07-12T04:18:52;17.00;99.90
20204;DHT22;10261;49.010;12.034;2022-07-12T04:19:56;17.00;99.90
20204;DHT22;10261;49.010;12.034;2022-07-12T04:20:59;17.00;99.90
20204;DHT22;10261;49.010;12.034;2022-07-12T04:22:01;17.00;99.90
20204;DHT22;10261;49.010;12.034;2022-07-12T04:23:04;17.00;99.90
20204;DHT22;10261;49.010;12.034;2022-07-12T04:24:06;17.00;99.90
20204;DHT22;10261;49.010;12.034;2022-07-12T04:25:09;17.00;99.90
20204;DHT22;10261;49.010;12.034;2022-07-12T04:26:12;17.00;99.90
20204;DHT22;10261;49.010;12.034;2022-07-12T04:27:14;17.00;99.90
20204;DHT22;10261;49.010;12.034;2022-07-12T04:28:17;17.00;99.90
20204;DHT22;10261;49.010;12.034;2022-07-12T04:29:19;17.00;99.90
20204;DHT22;10261;49.010;12.034;2022-07-12T04:30:23;17.00;99.90
20204;DHT22;10261;49.010;12.034;2022-07-12T04:31:25;17.00;99.90
20204;DHT22;10261;49.010;12.034;2022-07-12T04:32:29;17.00;99.90
20204;DHT22;10261;49.010;12.034;2022-07-12T04:33:32;17.00;99.90
20204;DHT22;10261;49.010;12.034;2022-07-12T04:34:35;17.00;99.90
20204;DHT22;10261;49.010;12.034;2022-07-12T04:35:37;17.00;99.90
20204;DHT22;10261;49.010;12.034;2022-07-12T04:36:40;17.00;99.90
20204;DHT22;10261;49.010;12.034;2022-07-12T04:37:42;17.00;99.90
20204;DHT22;10261;49.010;12.034;2022-07-12T04:38:45;17.00;99.90
20204;DHT22;10261;49.010;12.034;2022-07-12T04:39:47;17.10;99.90
20204;DHT22;10261;49.010;12.034;2022-07-12T04:40:50;17.10;99.90
20204;DHT22;10261;49.010;12.034;2022-07-12T04:41:52;17.10;99.90
20204;DHT22;10261;49.010;12.034;2022-07-12T04:42:55;17.10;99.90
20204;DHT22;10261;49.010;12.034;2022-07-12T04:43:57;17.10;99.90
20204;DHT22;10261;49.010;12.034;2022-07-12T04:45:00;17.10;99.90
20204;DHT22;10261;49.010;12.034;2022-07-12T04:46:06;17.00;99.90
20204;DHT22;10261;49.010;12.034;2022-07-12T04:47:09;17.10;99.90
20204;DHT22;10261;49.010;12.034;2022-07-12T04:48:13;17.00;99.90
20204;DHT22;10261;49.010;12.034;2022-07-12T04:49:16;17.10;99.90
20204;DHT22;10261;49.010;12.034;2022-07-12T04:50:18;17.00;99.90
20204;DHT22;10261;49.010;12.034;2022-07-12T04:51:21;17.10;99.90
20204;DHT22;10261;49.010;12.034;2022-07-12T04:52:23;17.10;99.90
20204;DHT22;10261;49.010;12.034;2022-07-12T04:53:26;17.10;99.90
20204;DHT22;10261;49.010;12.034;2022-07-12T04:54:28;17.10;99.90
20204;DHT22;10261;49.010;12.034;2022-07-12T04:55:31;17.10;99.90
20204;DHT22;10261;49.010;12.034;2022-07-12T04:56:33;17.10;99.90
20204;DHT22;10261;49.010;12.034;2022-07-12T04:57:37;17.10;99.90
20204;DHT22;10261;49.010;12.034;2022-07-12T04:58:39;17.10;99.90
20204;DHT22;10261;49.010;12.034;2022-07-12T04:59:42;17.10;99.90
20204;DHT22;10261;49.010;12.034;2022-07-12T05:00:44;17.10;99.90
20204;DHT22;10261;49.010;12.034;2022-07-12T05:01:47;17.00;99.90
20204;DHT22;10261;49.010;12.034;2022-07-12T05:02:49;16.90;99.90
20204;DHT22;10261;49.010;12.034;2022-07-12T05:03:54;16.90;99.90
20204;DHT22;10261;49.010;12.034;2022-07-12T05:04:56;16.90;99.90
20204;DHT22;10261;49.010;12.034;2022-07-12T05:05:59;16.90;99.90
20204;DHT22;10261;49.010;12.034;2022-07-12T05:07:01;16.90;99.90
20204;DHT22;10261;49.010;12.034;2022-07-12T05:08:04;17.00;99.90
20204;DHT22;10261;49.010;12.034;2022-07-12T05:09:06;17.00;99.90
20204;DHT22;10261;49.010;12.034;2022-07-12T05:10:09;17.00;99.90
20204;DHT22;10261;49.010;12.034;2022-07-12T05:11:11;17.10;99.90
20204;DHT22;10261;49.010;12.034;2022-07-12T05:12:15;17.00;99.90
20204;DHT22;10261;49.010;12.034;2022-07-12T05:13:17;17.00;99.90
20204;DHT22;10261;49.010;12.034;2022-07-12T05:14:20;17.00;99.90
20204;DHT22;10261;49.010;12.034;2022-07-12T05:15:22;17.00;99.90
20204;DHT22;10261;49.010;12.034;2022-07-12T05:16:25;17.00;99.90
20204;DHT22;10261;49.010;12.034;2022-07-12T05:17:27;17.00;99.90
20204;DHT22;10261;49.010;12.034;2022-07-12T05:18:31;17.00;99.90
20204;DHT22;10261;49.010;12.034;2022-07-12T05:19:34;17.00;99.90
20204;DHT22;10261;49.010;12.034;2022-07-12T05:20:37;17.00;99.90
20204;DHT22;10261;49.010;12.034;2022-07-12T05:21:39;17.00;99.90
20204;DHT22;10261;49.010;12.034;2022-07-12T05:22:43;17.10;99.90
20204;DHT22;10261;49.010;12.034;2022-07-12T05:23:45;17.10;99.90
20204;DHT22;10261;49.010;12.034;2022-07-12T05:24:48;17.20;99.90
20204;DHT22;10261;49.010;12.034;2022-07-12T05:25:51;17.20;99.90
20204;DHT22;10261;49.010;12.034;2022-07-12T05:26:54;17.20;99.90
20204;DHT22;10261;49.010;12.034;2022-07-12T05:27:56;17.10;99.90
20204;DHT22;10261;49.010;12.034;2022-07-12T05:29:00;17.10;99.90
20204;DHT22;10261;49.010;12.034;2022-07-12T05:30:03;17.20;99.90
20204;DHT22;10261;49.010;12.034;2022-07-12T05:31:09;17.20;99.90
20204;DHT22;10261;49.010;12.034;2022-07-12T05:32:11;17.20;99.90
20204;DHT22;10261;49.010;12.034;2022-07-12T05:33:14;17.20;99.90
20204;DHT22;10261;49.010;12.034;2022-07-12T05:34:16;17.20;99.90
20204;DHT22;10261;49.010;12.034;2022-07-12T05:35:21;17.20;99.90
20204;DHT22;10261;49.010;12.034;2022-07-12T05:36:23;17.20;99.90
20204;DHT22;10261;49.010;12.034;2022-07-12T05:37:26;17.30;99.90
20204;DHT22;10261;49.010;12.034;2022-07-12T05:38:28;17.30;99.90
20204;DHT22;10261;49.010;12.034;2022-07-12T05:39:31;17.40;99.90
20204;DHT22;10261;49.010;12.034;2022-07-12T05:40:33;17.30;99.90
20204;DHT22;10261;49.010;12.034;2022-07-12T05:41:36;17.30;99.90
20204;DHT22;10261;49.010;12.034;2022-07-12T05:42:38;17.30;99.90
20204;DHT22;10261;49.010;12.034;2022-07-12T05:43:41;17.30;99.90
20204;DHT22;10261;49.010;12.034;2022-07-12T05:44:43;17.30;99.90
20204;DHT22;10261;49.010;12.034;2022-07-12T05:45:46;17.30;99.90
20204;DHT22;10261;49.010;12.034;2022-07-12T05:46:48;17.30;99.90
20204;DHT22;10261;49.010;12.034;2022-07-12T05:47:51;17.30;99.90
20204;DHT22;10261;49.010;12.034;2022-07-12T05:48:54;17.40;99.90
20204;DHT22;10261;49.010;12.034;2022-07-12T05:49:57;17.40;99.90
20204;DHT22;10261;49.010;12.034;2022-07-12T05:51:00;17.50;99.90
20204;DHT22;10261;49.010;12.034;2022-07-12T05:52:17;17.40;99.90
20204;DHT22;10261;49.010;12.034;2022-07-12T05:53:52;17.40;99.90
20204;DHT22;10261;49.010;12.034;2022-07-12T05:54:55;17.40;99.90
20204;DHT22;10261;49.010;12.034;2022-07-12T05:55:57;17.40;99.90
20204;DHT22;10261;49.010;12.034;2022-07-12T05:57:01;17.40;99.90
20204;DHT22;10261;49.010;12.034;2022-07-12T05:58:03;17.50;99.90
20204;DHT22;10261;49.010;12.034;2022-07-12T05:59:06;17.50;99.90
20204;DHT22;10261;49.010;12.034;2022-07-12T06:00:09;17.50;99.90
20204;DHT22;10261;49.010;12.034;2022-07-12T06:01:12;17.50;99.90
20204;DHT22;10261;49.010;12.034;2022-07-12T06:02:14;17.50;99.90
20204;DHT22;10261;49.010;12.034;2022-07-12T06:03:17;17.50;99.90
20204;DHT22;10261;49.010;12.034;2022-07-12T06:04:19;17.50;99.90
20204;DHT22;10261;49.010;12.034;2022-07-12T06:05:22;17.50;99.90
20204;DHT22;10261;49.010;12.034;2022-07-12T06:06:26;17.50;99.90
20204;DHT22;10261;49.010;12.034;2022-07-12T06:07:29;17.50;99.90
20204;DHT22;10261;49.010;12.034;2022-07-12T06:08:31;17.50;99.90
20204;DHT22;10261;49.010;12.034;2022-07-12T06:09:34;17.50;99.90
20204;DHT22;10261;49.010;12.034;2022-07-12T06:10:36;17.50;99.90
20204;DHT22;10261;49.010;12.034;2022-07-12T06:11:39;17.50;99.90
20204;DHT22;10261;49.010;12.034;2022-07-12T06:12:41;17.50;99.90
20204;DHT22;10261;49.010;12.034;2022-07-12T06:13:44;17.50;99.90
20204;DHT22;10261;49.010;12.034;2022-07-12T06:14:46;17.50;99.90
20204;DHT22;10261;49.010;12.034;2022-07-12T06:15:49;17.50;99.90
20204;DHT22;10261;49.010;12.034;2022-07-12T06:16:51;17.50;99.90
20204;DHT22;10261;49.010;12.034;2022-07-12T06:17:54;17.60;99.90
20204;DHT22;10261;49.010;12.034;2022-07-12T06:18:57;17.50;99.90
20204;DHT22;10261;49.010;12.034;2022-07-12T06:20:00;17.60;99.90
20204;DHT22;10261;49.010;12.034;2022-07-12T06:21:02;17.50;99.90
20204;DHT22;10261;49.010;12.034;2022-07-12T06:22:06;17.60;99.90
20204;DHT22;10261;49.010;12.034;2022-07-12T06:23:08;17.60;99.90
20204;DHT22;10261;49.010;12.034;2022-07-12T06:25:14;17.60;99.90
20204;DHT22;10261;49.010;12.034;2022-07-12T06:26:37;17.60;99.90
20204;DHT22;10261;49.010;12.034;2022-07-12T06:28:42;17.60;99.90
20204;DHT22;10261;49.010;12.034;2022-07-12T06:29:45;17.60;99.90
20204;DHT22;10261;49.010;12.034;2022-07-12T06:31:53;17.70;99.90
20204;DHT22;10261;49.010;12.034;2022-07-12T06:32:55;17.70;99.90
20204;DHT22;10261;49.010;12.034;2022-07-12T06:33:58;17.70;99.90
20204;DHT22;10261;49.010;12.034;2022-07-12T06:35:00;17.70;99.90
20204;DHT22;10261;49.010;12.034;2022-07-12T06:36:04;17.70;99.90